Time;durP1;ratioP1;P1;durP2;ratioP2;P2;SDS_P1;SDS_P2;PMS_P1;PMS_P2;Temp;Humidity;BMP_temperature;BMP_pressure;BME280_temperature;BME280_humidity;BME280_pressure;Samples;Min_cycle;Max_cycle;Signal;HPM_P1;HPM_P2
2022/03/27 00:02:13;;;;;;;35.63;28.55;;;;;;;17.33;38.15;103337.34;5031611;28;20365;-79
2022/03/27 00:04:39;;;;;;;34.50;25.60;;;;;;;17.26;38.33;103331.34;5032789;28;20036;-79
2022/03/27 00:07:05;;;;;;;39.85;26.15;;;;;;;17.26;38.33;103333.28;5032716;28;20029;-79
2022/03/27 00:09:30;;;;;;;36.22;27.08;;;;;;;17.26;38.00;103330.53;5032569;28;20107;-79
2022/03/27 00:11:56;;;;;;;37.55;25.98;;;;;;;17.22;37.96;103330.28;5032620;28;20403;-79
2022/03/27 00:14:21;;;;;;;36.85;26.25;;;;;;;17.08;38.46;103332.13;5032630;28;20031;-79
2022/03/27 00:16:47;;;;;;;37.17;26.38;;;;;;;17.02;38.13;103325.03;5031299;28;20033;-79
2022/03/27 00:19:13;;;;;;;35.47;25.92;;;;;;;16.97;38.22;103342.47;5032494;28;20025;-79
2022/03/27 00:21:41;;;;;;;42.03;27.50;;;;;;;16.89;38.38;103332.06;5032484;28;20038;-79
2022/03/27 00:24:06;;;;;;;38.35;26.48;;;;;;;16.84;38.26;103337.63;5032385;28;20535;-79
2022/03/27 00:26:33;;;;;;;38.92;28.00;;;;;;;16.65;38.62;103332.84;5031207;28;20117;-79
2022/03/27 00:28:59;;;;;;;41.22;30.42;;;;;;;16.63;38.64;103332.31;5032276;28;20040;-79
2022/03/27 00:31:25;;;;;;;40.40;28.42;;;;;;;16.75;38.18;103331.94;5032452;28;20032;-79
2022/03/27 00:33:50;;;;;;;38.45;28.10;;;;;;;16.76;38.39;103332.75;5032021;28;20049;-79
2022/03/27 00:36:16;;;;;;;54.40;31.08;;;;;;;16.74;38.38;103335.81;5032174;28;20053;-79
2022/03/27 00:38:46;;;;;;;40.17;29.25;;;;;;;16.70;38.30;103340.28;5032084;28;20021;-79
2022/03/27 00:41:14;;;;;;;40.17;30.30;;;;;;;16.71;38.28;103327.31;5032324;28;20387;-79
2022/03/27 00:43:39;;;;;;;38.78;28.23;;;;;;;16.63;38.48;103325.97;5032105;28;20029;-78
2022/03/27 00:46:06;;;;;;;43.55;28.92;;;;;;;16.60;38.26;103327.34;5032335;28;20495;-78
2022/03/27 00:48:34;;;;;;;40.38;29.48;;;;;;;16.58;38.43;103324.06;5032059;28;20409;-79
2022/03/27 00:51:00;;;;;;;39.25;28.50;;;;;;;16.57;38.42;103325.19;5032109;28;20120;-79
2022/03/27 00:53:26;;;;;;;47.75;29.85;;;;;;;16.51;38.19;103320.00;5031775;28;20095;-79
2022/03/27 00:55:52;;;;;;;40.72;28.77;;;;;;;16.50;38.24;103327.47;5032057;28;20025;-79
2022/03/27 00:58:18;;;;;;;45.03;31.63;;;;;;;16.54;38.22;103330.44;5031360;28;20022;-82
2022/03/27 01:00:50;;;;;;;45.53;29.67;;;;;;;16.46;38.20;103317.28;5031346;28;20083;-90
2022/03/27 01:03:20;;;;;;;37.30;27.92;;;;;;;16.47;38.21;103322.50;5032132;28;20029;-89
2022/03/27 01:05:50;;;;;;;44.40;29.33;;;;;;;16.48;38.08;103321.41;5031974;28;20030;-79
2022/03/27 01:09:35;;;;;;;38.85;27.40;;;;;;;16.45;38.02;103312.88;5031931;28;20029;-79
2022/03/27 01:11:13;;;;;;;41.28;29.63;;;;;;;16.36;38.44;103310.75;5031840;28;20465;-78
2022/03/27 01:13:42;;;;;;;40.08;27.50;;;;;;;16.37;38.05;103317.09;5031847;28;20075;-85
2022/03/27 01:16:15;;;;;;;42.63;28.97;;;;;;;16.34;38.04;103306.66;5031832;28;20022;-79
2022/03/27 01:18:41;;;;;;;41.80;28.77;;;;;;;16.30;38.31;103311.09;5013848;28;20031;-79
2022/03/27 01:21:08;;;;;;;37.00;27.17;;;;;;;16.27;38.35;103306.97;5014008;28;20395;-80
2022/03/27 01:23:35;;;;;;;38.47;28.95;;;;;;;16.28;38.10;103308.63;5031688;28;20419;-84
2022/03/27 01:26:01;;;;;;;38.72;28.45;;;;;;;16.21;38.31;103310.06;5031537;28;20403;-79
2022/03/27 01:28:27;;;;;;;39.83;28.23;;;;;;;16.32;37.88;103303.34;5031825;28;20120;-79
2022/03/27 01:30:52;;;;;;;37.83;28.15;;;;;;;16.32;37.69;103297.81;5013880;28;20124;-78
2022/03/27 01:33:18;;;;;;;37.50;26.85;;;;;;;16.29;38.00;103303.94;5031294;28;20447;-79
2022/03/27 01:35:44;;;;;;;38.75;26.67;;;;;;;16.26;37.83;103302.59;5013785;28;20029;-79
2022/03/27 01:38:10;;;;;;;41.63;27.05;;;;;;;16.20;38.01;103308.44;5031464;28;20025;-79
2022/03/27 01:40:35;;;;;;;39.70;28.45;;;;;;;16.22;37.96;103300.69;5030267;28;20385;-79
2022/03/27 01:43:01;;;;;;;39.70;28.10;;;;;;;16.24;37.79;103303.97;5031461;28;20037;-78
2022/03/27 01:45:27;;;;;;;41.83;29.08;;;;;;;16.22;37.76;103303.44;5031470;28;20029;-79
2022/03/27 01:47:53;;;;;;;38.03;27.13;;;;;;;16.19;37.93;103304.03;5031475;28;20029;-78
2022/03/27 01:50:19;;;;;;;36.35;27.35;;;;;;;16.19;38.07;103298.50;5031407;28;20591;-79
2022/03/27 01:52:45;;;;;;;40.33;27.05;;;;;;;16.17;37.98;103300.72;5031501;28;20033;-78
2022/03/27 01:55:13;;;;;;;39.33;28.88;;;;;;;16.13;37.95;103291.38;5031424;28;20583;-79
2022/03/27 01:57:41;;;;;;;38.97;27.70;;;;;;;16.14;37.74;103291.09;5031213;28;20052;-79
2022/03/27 02:00:09;;;;;;;42.70;28.67;;;;;;;16.13;37.82;103288.63;5031303;28;20427;-79
2022/03/27 02:02:35;;;;;;;46.60;31.00;;;;;;;16.06;38.05;103287.00;5031194;28;20025;-79
2022/03/27 02:05:02;;;;;;;48.58;30.48;;;;;;;16.06;38.04;103287.00;5014908;28;20507;-79
2022/03/27 02:07:35;;;;;;;43.58;31.17;;;;;;;16.06;38.21;103287.00;5035284;28;20033;-79
2022/03/27 02:10:00;;;;;;;45.85;31.25;;;;;;;16.00;38.31;103279.88;5034891;28;20065;-79
2022/03/27 02:12:26;;;;;;;50.20;32.15;;;;;;;15.93;38.20;103273.88;5035080;28;20532;-79
2022/03/27 02:14:52;;;;;;;42.22;29.38;;;;;;;15.93;38.41;103275.81;5034903;28;20443;-78
2022/03/27 02:17:17;;;;;;;44.33;31.15;;;;;;;15.89;38.56;103274.75;5034969;28;20488;-79
2022/03/27 02:19:43;;;;;;;41.88;28.65;;;;;;;15.83;38.53;103276.72;5034874;28;20025;-79
2022/03/27 02:22:08;;;;;;;45.95;31.80;;;;;;;15.80;38.34;103278.13;5033633;28;20041;-79
2022/03/27 02:24:34;;;;;;;46.50;30.83;;;;;;;15.77;38.40;103275.94;5034673;28;20433;-78
2022/03/27 02:27:00;;;;;;;42.53;29.80;;;;;;;15.80;38.42;103277.31;5034683;28;20025;-78
2022/03/27 02:29:25;;;;;;;46.42;32.05;;;;;;;15.78;38.53;103274.00;5034594;28;20120;-79
2022/03/27 02:31:51;;;;;;;48.33;32.80;;;;;;;15.73;38.45;103276.81;5034598;28;20400;-79
2022/03/27 02:34:16;;;;;;;46.25;31.95;;;;;;;15.74;38.48;103282.03;5034314;28;20108;-79
2022/03/27 02:36:42;;;;;;;42.20;29.95;;;;;;;15.69;38.36;103275.72;5034560;28;20029;-79
2022/03/27 02:39:08;;;;;;;43.97;31.45;;;;;;;15.71;38.56;103265.22;5034359;28;20033;-79
2022/03/27 02:41:34;;;;;;;46.15;33.70;;;;;;;15.69;38.40;103273.78;5034362;28;20038;-79
2022/03/27 02:44:00;;;;;;;52.00;33.72;;;;;;;15.69;38.36;103267.44;5034321;28;20040;-80
2022/03/27 02:46:25;;;;;;;47.67;33.78;;;;;;;15.67;38.43;103266.94;5034513;28;20037;-79
2022/03/27 02:48:51;;;;;;;43.47;33.00;;;;;;;15.66;38.53;103255.09;5034485;28;20030;-78
2022/03/27 02:51:16;;;;;;;50.45;33.85;;;;;;;15.65;38.47;103266.41;5034378;28;20468;-90
2022/03/27 02:53:42;;;;;;;46.58;33.28;;;;;;;15.65;38.45;103250.69;5034318;28;20387;-79
2022/03/27 02:56:08;;;;;;;45.88;32.00;;;;;;;15.94;37.90;103252.66;5034266;28;20443;-88
2022/03/27 02:58:35;;;;;;;53.85;33.30;;;;;;;15.98;38.14;103249.03;5034160;28;20064;-79
2022/03/27 03:01:01;;;;;;;46.58;31.67;;;;;;;15.99;37.65;103250.66;5034072;28;20022;-88
2022/03/27 03:03:27;;;;;;;47.97;32.40;;;;;;;15.96;37.97;103243.00;5033916;28;20033;-78
2022/03/27 03:05:54;;;;;;;52.47;34.28;;;;;;;15.95;37.93;103244.09;5034113;28;20112;-78
2022/03/27 03:08:20;;;;;;;54.17;33.80;;;;;;;15.93;37.71;103239.97;5033810;28;20033;-76
2022/03/27 03:10:46;;;;;;;47.00;31.02;;;;;;;15.93;37.86;103238.03;5033972;28;20034;-79
2022/03/27 03:13:12;;;;;;;52.25;32.67;;;;;;;15.89;37.78;103241.69;5033738;28;20034;-79
2022/03/27 03:15:40;;;;;;;52.78;33.78;;;;;;;15.84;38.09;103239.78;5033292;28;20039;-86
2022/03/27 03:18:06;;;;;;;52.17;33.55;;;;;;;15.87;37.96;103239.22;5032736;28;20021;-78
2022/03/27 03:20:32;;;;;;;47.63;33.15;;;;;;;15.84;37.89;103234.25;5032533;28;20381;-79
2022/03/27 03:22:58;;;;;;;49.60;32.33;;;;;;;15.85;37.87;103237.84;5030296;28;20107;-85
2022/03/27 03:25:24;;;;;;;48.90;33.45;;;;;;;15.80;37.83;103238.72;5033450;28;20493;-79
2022/03/27 03:27:50;;;;;;;48.67;33.55;;;;;;;15.87;37.90;103235.59;5033065;28;20128;-78
2022/03/27 03:30:18;;;;;;;43.75;33.03;;;;;;;15.85;37.67;103224.88;5032400;28;20030;-79
2022/03/27 03:32:44;;;;;;;52.95;33.78;;;;;;;15.85;37.69;103222.13;5032507;28;20075;-80
2022/03/27 03:35:11;;;;;;;50.53;32.05;;;;;;;15.85;37.67;103224.88;5033519;28;20045;-87
2022/03/27 03:37:37;;;;;;;42.47;29.15;;;;;;;15.76;37.95;103232.94;5033108;28;20483;-79
2022/03/27 03:40:06;;;;;;;47.80;30.60;;;;;;;15.73;38.04;103230.78;5015395;28;20030;-78
2022/03/27 03:42:33;;;;;;;47.80;32.38;;;;;;;15.70;38.04;103225.81;5015490;28;20494;-79
2022/03/27 03:44:58;;;;;;;47.05;30.92;;;;;;;15.71;37.97;103218.38;5029788;28;20033;-80
2022/03/27 03:47:24;;;;;;;45.22;30.90;;;;;;;15.66;37.90;103223.94;5032853;28;20029;-79
2022/03/27 03:49:49;;;;;;;47.35;30.30;;;;;;;15.62;37.67;103217.34;5032711;28;20025;-79
2022/03/27 03:52:15;;;;;;;49.67;32.10;;;;;;;15.60;37.93;103214.03;5032114;28;20017;-79
2022/03/27 03:54:41;;;;;;;42.67;30.63;;;;;;;15.62;38.13;103217.34;5029089;28;20076;-78
2022/03/27 03:57:06;;;;;;;42.80;30.25;;;;;;;15.70;37.80;103220.31;5032132;28;20013;-87
2022/03/27 03:59:33;;;;;;;44.17;29.98;;;;;;;15.75;37.82;103208.44;5031858;28;20057;-83
2022/03/27 04:01:59;;;;;;;41.65;30.08;;;;;;;15.76;37.74;103223.84;5026014;28;20038;-80
2022/03/27 04:04:25;;;;;;;44.70;30.95;;;;;;;15.71;37.68;103213.69;5031608;28;20021;-79
2022/03/27 04:06:51;;;;;;;43.88;30.25;;;;;;;15.67;37.56;103217.31;5031723;28;20055;-79
2022/03/27 04:09:16;;;;;;;42.25;29.63;;;;;;;15.61;37.78;103219.28;5014077;28;20379;-86
2022/03/27 04:11:43;;;;;;;42.05;28.73;;;;;;;15.61;37.66;103216.53;5014210;28;20029;-81
2022/03/27 04:14:09;;;;;;;48.45;29.98;;;;;;;15.55;37.56;103223.97;5032741;28;20027;-86
2022/03/27 04:16:34;;;;;;;45.58;29.52;;;;;;;15.49;37.77;103216.00;5032271;28;20021;-82
2022/03/27 04:19:00;;;;;;;49.00;31.05;;;;;;;15.38;37.77;103208.94;5032297;28;20386;-78
2022/03/27 04:21:26;;;;;;;49.70;30.33;;;;;;;15.37;37.74;103208.13;5030109;28;20025;-79
2022/03/27 04:23:52;;;;;;;46.75;30.05;;;;;;;15.37;37.66;103210.88;5013939;28;20045;-78
2022/03/27 04:26:18;;;;;;;41.15;28.95;;;;;;;15.37;37.80;103210.88;5028733;28;20025;-80
2022/03/27 04:28:45;;;;;;;40.42;29.23;;;;;;;15.37;37.97;103204.53;5031595;28;20476;-86
2022/03/27 04:31:11;;;;;;;45.00;30.10;;;;;;;15.36;37.94;103202.91;5014519;28;20064;-79
2022/03/27 04:33:36;;;;;;;43.22;30.30;;;;;;;15.36;37.85;103203.72;5013843;28;20092;-78
2022/03/27 04:36:06;;;;;;;49.83;29.65;;;;;;;15.33;37.87;103196.00;5014413;28;20041;-79
2022/03/27 04:38:32;;;;;;;47.38;31.05;;;;;;;15.34;37.82;103194.94;5031893;28;20033;-79
2022/03/27 04:40:57;;;;;;;48.90;28.60;;;;;;;15.29;38.06;103200.47;5030800;28;20052;-79
2022/03/27 04:43:23;;;;;;;48.17;31.15;;;;;;;15.30;37.73;103191.09;5029773;28;20476;-79
2022/03/27 04:45:49;;;;;;;46.42;31.17;;;;;;;15.24;37.99;103197.72;5030722;28;20032;-79
2022/03/27 04:48:15;;;;;;;49.90;30.88;;;;;;;15.26;38.07;103190.00;5030851;28;20461;-79
2022/03/27 04:50:41;;;;;;;41.25;29.48;;;;;;;15.24;37.85;103193.03;5010202;28;20079;-80
2022/03/27 04:53:06;;;;;;;35.83;26.63;;;;;;;15.23;37.73;103190.59;5032143;28;20117;-87
2022/03/27 04:55:32;;;;;;;51.17;27.90;;;;;;;15.19;37.71;103197.78;5030730;28;20033;-86
2022/03/27 04:57:58;;;;;;;46.92;28.83;;;;;;;15.14;37.90;103187.63;5032267;28;20040;-80
2022/03/27 05:00:24;;;;;;;48.38;30.50;;;;;;;15.10;37.93;103185.69;5031576;28;20463;-79
2022/03/27 05:02:49;;;;;;;53.95;30.15;;;;;;;15.10;37.86;103185.69;5032513;28;20392;-84
2022/03/27 05:05:15;;;;;;;42.88;28.67;;;;;;;15.10;38.04;103188.44;5022904;28;20029;-80
2022/03/27 05:07:42;;;;;;;46.63;29.23;;;;;;;15.07;37.89;103189.84;5012568;28;20038;-85
2022/03/27 05:10:09;;;;;;;50.00;27.85;;;;;;;15.05;37.87;103194.84;4994742;28;20053;-86
2022/03/27 05:12:35;;;;;;;37.17;27.13;;;;;;;15.03;38.22;103190.69;5027964;28;20117;-78
2022/03/27 05:15:00;;;;;;;38.97;27.23;;;;;;;15.01;37.99;103190.16;5032064;28;20588;-78
2022/03/27 05:17:26;;;;;;;40.42;26.52;;;;;;;14.90;38.33;103203.16;5031968;28;20553;-79
2022/03/27 05:19:51;;;;;;;41.08;28.00;;;;;;;14.98;37.97;103197.06;5031799;28;20152;-78
2022/03/27 05:22:17;;;;;;;44.85;28.77;;;;;;;14.97;38.11;103198.19;5032217;28;20030;-91
2022/03/27 05:24:44;;;;;;;41.05;25.75;;;;;;;14.94;38.16;103202.31;5032014;28;20111;-90
2022/03/27 05:27:10;;;;;;;51.20;30.52;;;;;;;14.94;38.02;103198.72;5031898;28;20026;-79
2022/03/27 05:29:36;;;;;;;43.00;28.33;;;;;;;14.95;37.86;103190.19;5031775;28;20079;-90
2022/03/27 05:32:02;;;;;;;39.20;28.27;;;;;;;14.92;38.00;103196.25;5031756;28;20025;-79
2022/03/27 05:34:28;;;;;;;47.08;29.92;;;;;;;14.93;38.15;103195.16;5031585;28;20051;-78
2022/03/27 05:36:53;;;;;;;52.08;31.17;;;;;;;14.86;38.05;103194.63;5031836;28;20021;-78
2022/03/27 05:39:19;;;;;;;43.10;27.45;;;;;;;14.89;38.01;103199.59;5032059;28;20063;-80
2022/03/27 05:41:45;;;;;;;42.08;27.75;;;;;;;14.84;38.22;103191.34;5018273;28;20057;-78
2022/03/27 05:44:11;;;;;;;43.35;27.95;;;;;;;14.87;37.99;103193.53;5035973;28;20543;-78
2022/03/27 05:46:37;;;;;;;43.47;28.05;;;;;;;14.94;37.85;103191.28;5035879;28;20036;-79
2022/03/27 05:49:03;;;;;;;38.47;27.75;;;;;;;14.86;38.04;103188.31;5034496;28;20434;-78
2022/03/27 05:51:28;;;;;;;34.75;25.80;;;;;;;14.87;37.97;103190.78;5035488;28;20029;-79
2022/03/27 05:53:54;;;;;;;39.63;28.27;;;;;;;14.90;37.93;103192.97;5035644;28;20104;-78
2022/03/27 05:56:19;;;;;;;40.85;27.20;;;;;;;14.91;37.77;103196.56;5035646;28;20119;-78
2022/03/27 05:58:45;;;;;;;42.67;27.17;;;;;;;14.90;37.97;103192.16;5035634;28;20029;-78
2022/03/27 06:01:11;;;;;;;38.97;27.50;;;;;;;14.97;37.70;103193.50;5035566;28;20032;-78
2022/03/27 06:03:36;;;;;;;39.58;27.52;;;;;;;14.88;37.85;103195.16;5034598;28;20053;-90
2022/03/27 06:06:03;;;;;;;41.60;26.02;;;;;;;14.88;37.95;103202.59;5035582;28;20045;-78
2022/03/27 06:08:29;;;;;;;45.08;27.88;;;;;;;14.91;38.10;103200.13;5035223;28;20025;-78
2022/03/27 06:10:55;;;;;;;45.17;27.13;;;;;;;14.98;37.93;103199.81;5035059;28;20132;-88
2022/03/27 06:13:20;;;;;;;40.78;27.27;;;;;;;15.21;37.28;103199.13;5035229;28;20025;-78
2022/03/27 06:15:46;;;;;;;40.13;26.42;;;;;;;15.35;37.04;103204.03;5035307;28;20021;-77
2022/03/27 06:18:12;;;;;;;38.20;25.95;;;;;;;15.43;36.88;103204.22;5035233;28;20113;-78
2022/03/27 06:20:40;;;;;;;38.10;26.15;;;;;;;15.48;36.72;103206.94;5035247;28;20076;-78
2022/03/27 06:23:08;;;;;;;47.65;26.52;;;;;;;15.43;36.80;103203.41;5034874;28;20026;-78
2022/03/27 06:25:35;;;;;;;39.72;27.00;;;;;;;15.42;36.90;103199.84;5034789;28;20105;-79
2022/03/27 06:28:01;;;;;;;40.88;25.15;;;;;;;15.53;36.46;103204.16;5035152;28;20029;-78
2022/03/27 06:30:29;;;;;;;40.25;26.42;;;;;;;15.48;36.80;103206.09;5034807;28;20029;-78
2022/03/27 06:32:55;;;;;;;43.28;27.98;;;;;;;15.50;36.94;103203.91;5035127;28;20449;-79
2022/03/27 06:35:22;;;;;;;39.63;25.85;;;;;;;15.55;36.91;103204.69;5034899;28;20046;-78
2022/03/27 06:37:48;;;;;;;38.95;25.30;;;;;;;15.55;36.86;103206.63;5034651;28;20116;-78
2022/03/27 06:40:15;;;;;;;33.35;25.02;;;;;;;15.58;36.72;103199.72;5034745;28;20029;-78
2022/03/27 06:42:43;;;;;;;47.65;25.83;;;;;;;15.50;37.04;103201.16;5035032;28;20104;-79
2022/03/27 06:45:10;;;;;;;53.03;28.42;;;;;;;15.48;37.09;103206.09;5034924;28;20025;-79
2022/03/27 06:47:37;;;;;;;45.85;28.20;;;;;;;15.57;37.12;103214.59;5034733;28;20061;-79
2022/03/27 06:50:04;;;;;;;41.53;27.85;;;;;;;15.55;37.21;103206.63;5034268;28;20041;-78
2022/03/27 06:52:31;;;;;;;40.60;27.88;;;;;;;15.73;36.95;103197.69;5034432;28;20028;-78
2022/03/27 06:54:57;;;;;;;41.58;26.88;;;;;;;15.76;36.88;103199.88;5034564;28;20045;-78
2022/03/27 06:57:22;;;;;;;38.38;26.50;;;;;;;15.80;36.88;103200.13;5034676;28;20030;-83
2022/03/27 07:05:17;;;;;;;39.25;25.38;;;;;;;15.55;38.13;103212.13;5034399;28;20554;-78
2022/03/27 07:07:42;;;;;;;44.63;27.83;;;;;;;15.65;37.97;103195.56;5034334;28;20030;-89
2022/03/27 07:10:10;;;;;;;41.13;26.70;;;;;;;15.73;38.06;103202.38;5033926;28;20484;-84
2022/03/27 07:12:36;;;;;;;38.30;26.63;;;;;;;15.80;37.73;103202.88;5034100;28;20025;-78
2022/03/27 07:15:01;;;;;;;34.92;25.05;;;;;;;15.78;38.19;103205.91;5034175;28;20021;-78
2022/03/27 07:17:27;;;;;;;36.72;25.33;;;;;;;15.91;37.95;103206.38;5033988;28;20100;-78
2022/03/27 07:19:53;;;;;;;37.63;26.30;;;;;;;15.98;38.15;103204.09;5033881;28;20085;-78
2022/03/27 07:22:18;;;;;;;46.00;27.38;;;;;;;16.00;38.15;103207.38;5034093;28;20156;-81
2022/03/27 07:24:45;;;;;;;42.10;28.15;;;;;;;16.14;38.04;103204.75;5034680;28;20036;-79
2022/03/27 07:27:12;;;;;;;46.17;29.73;;;;;;;16.27;37.96;103202.16;5017112;28;21296;-90
2022/03/27 07:29:38;;;;;;;43.70;29.65;;;;;;;16.41;38.48;103207.81;5031811;28;20030;-79
2022/03/27 07:32:08;;;;;;;41.47;28.92;;;;;;;16.57;38.19;103205.69;5034753;28;20124;-91
2022/03/27 07:34:35;;;;;;;54.72;36.08;;;;;;;16.79;38.53;103213.47;5034404;28;20042;-79
2022/03/27 07:37:02;;;;;;;48.28;30.90;;;;;;;16.97;38.47;103211.84;5034764;28;20495;-82
2022/03/27 07:39:27;;;;;;;41.15;28.42;;;;;;;17.16;38.39;103209.94;5034610;28;20105;-79
2022/03/27 07:41:53;;;;;;;41.30;28.20;;;;;;;17.15;38.65;103214.63;5034866;28;20052;-82
2022/03/27 07:44:19;;;;;;;47.30;31.45;;;;;;;17.27;38.67;103208.66;5034811;28;20025;-78
2022/03/27 07:46:44;;;;;;;49.28;32.50;;;;;;;17.33;38.81;103207.44;5034984;28;20103;-79
2022/03/27 07:49:11;;;;;;;51.63;34.88;;;;;;;17.54;39.00;103202.44;5035158;28;20022;-89
2022/03/27 07:51:37;;;;;;;56.63;36.63;;;;;;;17.65;39.07;103203.09;5034899;28;20032;-88
2022/03/27 07:54:03;;;;;;;62.20;37.42;;;;;;;17.88;39.12;103198.59;5035357;28;20025;-78
2022/03/27 07:56:29;;;;;;;51.50;34.78;;;;;;;18.05;39.53;103209.06;5035055;28;20036;-89
2022/03/27 07:58:56;;;;;;;55.28;38.35;;;;;;;18.26;39.46;103208.38;5035285;28;20472;-89
2022/03/27 08:01:23;;;;;;;78.38;47.45;;;;;;;18.44;39.78;103203.91;5035624;28;20034;-78
2022/03/27 08:03:49;;;;;;;82.82;51.53;;;;;;;18.76;40.82;103204.97;5033835;28;20108;-78
2022/03/27 08:06:15;;;;;;;79.18;50.08;;;;;;;19.01;41.17;103207.16;5034694;28;20083;-78
2022/03/27 08:08:42;;;;;;;83.40;51.13;;;;;;;19.31;41.50;103211.19;5035003;28;20104;-90
2022/03/27 08:11:08;;;;;;;77.05;48.53;;;;;;;19.44;41.92;103219.78;5034614;28;20036;-91
2022/03/27 08:13:34;;;;;;;73.05;47.83;;;;;;;19.55;42.26;103208.13;5033849;28;20084;-85
2022/03/27 08:16:00;;;;;;;73.88;47.28;;;;;;;19.68;42.53;103218.38;5016874;28;20021;-89
2022/03/27 08:18:26;;;;;;;67.95;47.83;;;;;;;19.82;42.71;103212.78;5032961;28;20060;-80
2022/03/27 08:20:52;;;;;;;70.70;47.05;;;;;;;20.00;42.49;103210.09;5034143;28;20036;-78
2022/03/27 08:23:18;;;;;;;69.97;49.97;;;;;;;20.09;42.55;103209.00;5034272;28;20065;-93
2022/03/27 08:28:27;;;;;;;68.90;43.75;;;;;;;20.30;42.46;103209.28;5033771;28;20052;-77
2022/03/27 08:30:53;;;;;;;69.10;46.03;;;;;;;20.32;42.65;103212.53;5033286;28;20531;-78
2022/03/27 08:33:18;;;;;;;70.10;43.95;;;;;;;20.34;42.80;103212.25;5030892;28;20036;-78
2022/03/27 08:35:45;;;;;;;70.25;45.13;;;;;;;20.39;42.64;103207.34;5030126;28;20041;-77
2022/03/27 08:38:15;;;;;;;66.88;45.50;;;;;;;20.28;43.04;103207.97;5033862;28;20033;-78
2022/03/27 08:40:43;;;;;;;62.95;42.15;;;;;;;20.42;42.67;103208.69;5037281;28;20787;-79
2022/03/27 08:43:11;;;;;;;71.20;45.20;;;;;;;20.58;42.67;103209.09;5040589;28;20036;-77
2022/03/27 08:45:37;;;;;;;63.90;42.72;;;;;;;20.57;42.66;103201.91;5032268;28;20029;-78
2022/03/27 08:48:04;;;;;;;64.07;42.60;;;;;;;20.38;43.14;103199.34;5033036;28;20028;-77
2022/03/27 08:50:34;;;;;;;70.78;43.90;;;;;;;20.66;42.58;103199.97;5033052;28;20029;-80
2022/03/27 08:53:03;;;;;;;62.17;43.33;;;;;;;20.78;42.57;103202.91;5032715;28;20480;-80
2022/03/27 08:55:54;;;;;;;59.42;43.60;;;;;;;20.84;42.34;103195.25;5015745;28;20116;-80
2022/03/27 08:58:25;;;;;;;60.78;42.25;;;;;;;20.98;42.39;103195.94;5032969;28;20030;-80
2022/03/27 09:00:51;;;;;;;55.80;41.38;;;;;;;21.05;42.16;103196.28;5035181;28;20492;-81
2022/03/27 09:03:20;;;;;;;63.70;41.05;;;;;;;21.43;41.47;103195.66;5033631;28;20035;-80
2022/03/27 09:05:46;;;;;;;54.60;39.95;;;;;;;21.60;40.76;103195.63;5033115;28;20026;-83
2022/03/27 09:08:13;;;;;;;58.13;39.70;;;;;;;21.51;40.92;103192.88;5014137;28;20032;-80
2022/03/27 09:10:40;;;;;;;53.95;38.28;;;;;;;21.21;41.53;103193.84;5032191;28;20040;-79
2022/03/27 09:13:11;;;;;;;63.78;39.80;;;;;;;21.13;41.73;103195.47;5032674;28;20017;-92
2022/03/27 09:15:37;;;;;;;58.35;39.40;;;;;;;21.19;41.70;103196.13;5033443;28;20025;-90
2022/03/27 09:18:07;;;;;;;60.17;39.42;;;;;;;21.25;41.49;103195.66;5018620;28;20028;-86
2022/03/27 09:20:36;;;;;;;59.28;39.47;;;;;;;21.35;41.22;103211.22;5032849;28;20029;-79
2022/03/27 09:23:18;;;;;;;59.88;39.55;;;;;;;21.38;41.32;103204.97;5026071;28;20527;-80
2022/03/27 09:25:53;;;;;;;59.85;38.13;;;;;;;21.40;41.35;103207.47;5024208;28;20075;-79
2022/03/27 09:28:25;;;;;;;55.10;38.38;;;;;;;21.38;41.30;103196.63;5015097;28;20029;-80
2022/03/27 09:30:51;;;;;;;49.40;34.90;;;;;;;21.68;40.33;103196.78;5009254;28;20494;-82
2022/03/27 09:33:46;;;;;;;48.83;35.15;;;;;;;21.48;40.79;103185.19;5012633;28;20033;-86
2022/03/27 09:36:15;;;;;;;55.33;36.65;;;;;;;21.46;41.15;103186.66;5028359;28;20045;-89
2022/03/27 09:38:55;;;;;;;52.38;36.05;;;;;;;21.57;40.35;103182.41;5025459;28;20026;-82
2022/03/27 09:41:33;;;;;;;50.95;35.20;;;;;;;21.70;40.23;103184.19;5015944;28;20037;-79
2022/03/27 09:44:06;;;;;;;50.60;36.72;;;;;;;21.71;40.26;103179.44;5022292;28;20017;-79
2022/03/27 09:46:53;;;;;;;48.92;35.70;;;;;;;21.76;39.92;103176.47;5013653;28;20025;-85
2022/03/27 09:49:25;;;;;;;47.42;35.55;;;;;;;21.78;40.21;103185.31;5023658;28;20029;-76
2022/03/27 09:51:51;;;;;;;48.40;33.90;;;;;;;21.84;39.98;103184.00;5023253;28;20029;-80
2022/03/27 09:54:17;;;;;;;48.88;34.13;;;;;;;21.92;39.72;103188.72;5028995;28;20029;-80
2022/03/27 09:56:42;;;;;;;55.28;32.03;;;;;;;21.99;39.73;103190.97;5023994;28;20044;-81
2022/03/27 09:59:26;;;;;;;44.53;31.23;;;;;;;21.99;39.44;103179.84;5027934;28;20029;-81
2022/03/27 10:01:51;;;;;;;56.20;32.47;;;;;;;21.99;39.53;103180.69;5025053;28;20037;-79
2022/03/27 10:04:17;;;;;;;51.13;32.25;;;;;;;22.09;39.32;103169.22;5019472;28;20029;-79
2022/03/27 10:06:43;;;;;;;45.47;32.65;;;;;;;22.01;39.38;103177.56;5030926;28;20021;-80
2022/03/27 10:09:14;;;;;;;56.40;33.13;;;;;;;22.07;39.28;103181.81;5025807;28;20060;-78
2022/03/27 10:11:41;;;;;;;42.17;30.95;;;;;;;22.17;38.84;103177.88;5022229;28;20036;-79
2022/03/27 10:14:08;;;;;;;36.72;26.35;;;;;;;22.17;38.88;103169.50;5024309;28;20028;-80
2022/03/27 10:16:43;;;;;;;42.58;26.65;;;;;;;22.09;38.61;103163.63;5035433;28;20032;-80
2022/03/27 10:19:18;;;;;;;39.95;26.58;;;;;;;22.25;38.60;103157.50;5023049;28;20087;-81
2022/03/27 10:21:46;;;;;;;38.58;26.17;;;;;;;22.08;38.58;103156.44;5023350;28;20047;-82
2022/03/27 10:24:15;;;;;;;38.78;27.63;;;;;;;22.26;38.35;103151.59;5023037;28;20079;-81
2022/03/27 10:26:43;;;;;;;36.58;25.73;;;;;;;22.30;38.40;103157.34;5020351;28;20479;-81
2022/03/27 10:29:10;;;;;;;35.85;24.55;;;;;;;22.23;38.64;103141.16;5019978;28;20108;-80
2022/03/27 10:31:37;;;;;;;39.58;25.63;;;;;;;22.25;38.46;103146.38;5034171;28;20118;-81
2022/03/27 10:34:05;;;;;;;37.53;26.85;;;;;;;22.15;38.65;103137.25;5027245;28;20056;-82
2022/03/27 10:36:56;;;;;;;36.53;25.63;;;;;;;22.15;38.26;103140.03;5017846;28;20084;-81
2022/03/27 10:39:53;;;;;;;33.67;24.73;;;;;;;22.27;38.04;103139.31;5036623;28;20029;-81
2022/03/27 10:43:09;;;;;;;43.72;25.45;;;;;;;22.25;38.20;103143.59;5028692;28;20037;-88
2022/03/27 10:45:35;;;;;;;28.30;23.23;;;;;;;22.36;37.95;103142.03;4994558;28;20094;-81
2022/03/27 10:48:12;;;;;;;36.90;24.13;;;;;;;22.23;38.17;103135.56;5028991;28;20033;-81
2022/03/27 10:51:04;;;;;;;31.48;22.98;;;;;;;22.55;37.22;103136.88;5029441;28;20033;-81
2022/03/27 10:53:29;;;;;;;39.53;26.17;;;;;;;22.92;36.90;103132.38;5022376;28;20044;-81
2022/03/27 10:55:57;;;;;;;75.72;29.38;;;;;;;22.90;37.24;103131.91;5010577;28;20034;-82
2022/03/27 10:58:34;;;;;;;38.45;26.00;;;;;;;22.75;37.58;103134.44;5019840;28;20040;-81
2022/03/27 11:01:02;;;;;;;44.03;27.70;;;;;;;22.90;37.29;103137.47;5033723;28;20083;-81
2022/03/27 11:04:04;;;;;;;36.17;24.23;;;;;;;22.78;37.08;103122.63;5033464;28;20035;-81
2022/03/27 11:06:32;;;;;;;35.15;24.05;;;;;;;23.02;36.72;103128.34;5000806;28;20087;-81
2022/03/27 11:08:59;;;;;;;30.83;23.73;;;;;;;23.05;37.07;103126.84;5017714;28;20594;-81
2022/03/27 11:11:33;;;;;;;31.25;24.33;;;;;;;23.24;36.63;103125.19;5028092;28;20028;-81
2022/03/27 11:14:06;;;;;;;32.13;23.70;;;;;;;23.08;36.95;103121.41;5018449;28;20036;-81
2022/03/27 11:16:37;;;;;;;33.13;24.35;;;;;;;22.98;36.80;103127.41;5024669;28;20040;-81
2022/03/27 11:19:04;;;;;;;33.15;23.23;;;;;;;22.94;37.16;103121.69;5047443;28;20027;-81
2022/03/27 11:21:29;;;;;;;35.03;23.63;;;;;;;22.97;37.29;103125.75;5013452;28;20109;-81